sensor_id;sensor_type;location;lat;lon;timestamp;P1;durP1;ratioP1;P2;durP2;ratioP2
35646;SDS011;28680;45.642;13.756;2023-06-26T00:01:33;7.80;;;6.15;;
35646;SDS011;28680;45.642;13.756;2023-06-26T00:04:00;23.27;;;6.40;;
35646;SDS011;28680;45.642;13.756;2023-06-26T00:06:26;9.95;;;5.85;;
35646;SDS011;28680;45.642;13.756;2023-06-26T00:08:53;7.25;;;5.82;;
35646;SDS011;28680;45.642;13.756;2023-06-26T00:11:21;7.63;;;5.63;;
35646;SDS011;28680;45.642;13.756;2023-06-26T00:13:47;8.07;;;6.28;;
35646;SDS011;28680;45.642;13.756;2023-06-26T00:16:13;7.90;;;6.00;;
35646;SDS011;28680;45.642;13.756;2023-06-26T00:18:39;7.30;;;5.75;;
35646;SDS011;28680;45.642;13.756;2023-06-26T00:21:05;8.02;;;6.18;;
35646;SDS011;28680;45.642;13.756;2023-06-26T00:23:31;8.00;;;6.22;;
35646;SDS011;28680;45.642;13.756;2023-06-26T00:26:01;8.55;;;5.97;;
35646;SDS011;28680;45.642;13.756;2023-06-26T00:28:30;7.88;;;6.45;;
35646;SDS011;28680;45.642;13.756;2023-06-26T00:30:56;7.28;;;6.50;;
35646;SDS011;28680;45.642;13.756;2023-06-26T00:33:22;7.40;;;6.15;;
35646;SDS011;28680;45.642;13.756;2023-06-26T00:35:48;8.07;;;5.85;;
35646;SDS011;28680;45.642;13.756;2023-06-26T00:38:14;8.40;;;6.05;;
35646;SDS011;28680;45.642;13.756;2023-06-26T00:40:40;7.93;;;6.40;;
35646;SDS011;28680;45.642;13.756;2023-06-26T00:43:06;8.40;;;6.45;;
35646;SDS011;28680;45.642;13.756;2023-06-26T00:45:32;8.27;;;6.38;;
35646;SDS011;28680;45.642;13.756;2023-06-26T00:47:58;9.68;;;6.40;;
35646;SDS011;28680;45.642;13.756;2023-06-26T00:50:24;7.70;;;6.07;;
35646;SDS011;28680;45.642;13.756;2023-06-26T00:52:51;8.20;;;6.38;;
35646;SDS011;28680;45.642;13.756;2023-06-26T00:55:19;9.43;;;6.03;;
35646;SDS011;28680;45.642;13.756;2023-06-26T00:57:45;6.55;;;5.82;;
35646;SDS011;28680;45.642;13.756;2023-06-26T01:00:12;8.07;;;6.15;;
35646;SDS011;28680;45.642;13.756;2023-06-26T01:02:39;9.48;;;6.45;;
35646;SDS011;28680;45.642;13.756;2023-06-26T01:05:05;6.68;;;5.90;;
35646;SDS011;28680;45.642;13.756;2023-06-26T01:07:32;7.95;;;6.07;;
35646;SDS011;28680;45.642;13.756;2023-06-26T01:10:02;7.05;;;5.72;;
35646;SDS011;28680;45.642;13.756;2023-06-26T01:12:30;7.93;;;6.50;;
35646;SDS011;28680;45.642;13.756;2023-06-26T01:15:01;9.68;;;6.88;;
35646;SDS011;28680;45.642;13.756;2023-06-26T01:17:27;7.55;;;6.07;;
35646;SDS011;28680;45.642;13.756;2023-06-26T01:19:57;8.40;;;6.13;;
35646;SDS011;28680;45.642;13.756;2023-06-26T01:22:31;7.80;;;6.20;;
35646;SDS011;28680;45.642;13.756;2023-06-26T01:28:23;7.15;;;6.20;;
35646;SDS011;28680;45.642;13.756;2023-06-26T01:30:51;8.73;;;6.47;;
35646;SDS011;28680;45.642;13.756;2023-06-26T01:33:18;8.27;;;6.03;;
35646;SDS011;28680;45.642;13.756;2023-06-26T01:35:45;7.30;;;6.05;;
35646;SDS011;28680;45.642;13.756;2023-06-26T01:38:21;9.35;;;6.00;;
35646;SDS011;28680;45.642;13.756;2023-06-26T01:40:53;8.30;;;6.70;;
35646;SDS011;28680;45.642;13.756;2023-06-26T01:51:32;7.10;;;6.03;;
35646;SDS011;28680;45.642;13.756;2023-06-26T01:54:03;8.50;;;6.50;;
35646;SDS011;28680;45.642;13.756;2023-06-26T01:56:34;8.93;;;5.95;;
35646;SDS011;28680;45.642;13.756;2023-06-26T01:59:03;7.85;;;6.18;;
35646;SDS011;28680;45.642;13.756;2023-06-26T02:01:30;8.32;;;5.75;;
35646;SDS011;28680;45.642;13.756;2023-06-26T02:03:58;8.15;;;5.97;;
35646;SDS011;28680;45.642;13.756;2023-06-26T02:06:25;10.32;;;6.55;;
35646;SDS011;28680;45.642;13.756;2023-06-26T02:08:50;7.72;;;5.90;;
35646;SDS011;28680;45.642;13.756;2023-06-26T02:11:16;10.68;;;6.28;;
35646;SDS011;28680;45.642;13.756;2023-06-26T02:13:42;8.43;;;6.15;;
35646;SDS011;28680;45.642;13.756;2023-06-26T02:16:08;8.43;;;6.28;;
35646;SDS011;28680;45.642;13.756;2023-06-26T02:18:34;7.35;;;5.95;;
35646;SDS011;28680;45.642;13.756;2023-06-26T02:21:00;9.30;;;6.40;;
35646;SDS011;28680;45.642;13.756;2023-06-26T02:23:28;8.65;;;6.07;;
35646;SDS011;28680;45.642;13.756;2023-06-26T02:25:54;9.30;;;6.90;;
35646;SDS011;28680;45.642;13.756;2023-06-26T02:28:20;8.45;;;6.38;;
35646;SDS011;28680;45.642;13.756;2023-06-26T02:30:46;8.00;;;5.82;;
35646;SDS011;28680;45.642;13.756;2023-06-26T02:33:12;8.88;;;6.05;;
35646;SDS011;28680;45.642;13.756;2023-06-26T02:35:37;10.05;;;5.97;;
35646;SDS011;28680;45.642;13.756;2023-06-26T02:38:03;10.80;;;6.60;;
35646;SDS011;28680;45.642;13.756;2023-06-26T02:40:29;8.52;;;5.78;;
35646;SDS011;28680;45.642;13.756;2023-06-26T02:42:55;8.70;;;6.43;;
35646;SDS011;28680;45.642;13.756;2023-06-26T02:45:21;7.45;;;5.97;;
35646;SDS011;28680;45.642;13.756;2023-06-26T02:47:47;9.93;;;6.20;;
35646;SDS011;28680;45.642;13.756;2023-06-26T02:50:13;8.75;;;6.25;;
35646;SDS011;28680;45.642;13.756;2023-06-26T02:52:40;8.65;;;6.32;;
35646;SDS011;28680;45.642;13.756;2023-06-26T02:55:06;10.13;;;6.47;;
35646;SDS011;28680;45.642;13.756;2023-06-26T02:57:32;9.00;;;6.95;;
35646;SDS011;28680;45.642;13.756;2023-06-26T02:59:58;9.68;;;6.45;;
35646;SDS011;28680;45.642;13.756;2023-06-26T03:02:24;8.63;;;6.45;;
35646;SDS011;28680;45.642;13.756;2023-06-26T03:04:49;8.88;;;6.35;;
35646;SDS011;28680;45.642;13.756;2023-06-26T03:07:16;9.82;;;6.32;;
35646;SDS011;28680;45.642;13.756;2023-06-26T03:09:42;9.25;;;6.50;;
35646;SDS011;28680;45.642;13.756;2023-06-26T03:12:08;9.38;;;6.80;;
35646;SDS011;28680;45.642;13.756;2023-06-26T03:14:34;9.75;;;6.35;;
35646;SDS011;28680;45.642;13.756;2023-06-26T03:17:00;7.88;;;6.07;;
35646;SDS011;28680;45.642;13.756;2023-06-26T03:19:28;7.65;;;6.25;;
35646;SDS011;28680;45.642;13.756;2023-06-26T03:21:54;10.63;;;6.03;;
35646;SDS011;28680;45.642;13.756;2023-06-26T03:24:20;12.15;;;7.05;;
35646;SDS011;28680;45.642;13.756;2023-06-26T03:26:46;8.45;;;6.25;;
35646;SDS011;28680;45.642;13.756;2023-06-26T03:29:12;7.95;;;6.40;;
35646;SDS011;28680;45.642;13.756;2023-06-26T03:31:38;9.05;;;6.45;;
35646;SDS011;28680;45.642;13.756;2023-06-26T03:34:04;7.20;;;5.70;;
35646;SDS011;28680;45.642;13.756;2023-06-26T03:36:30;9.63;;;6.97;;
35646;SDS011;28680;45.642;13.756;2023-06-26T03:38:56;9.88;;;6.85;;
35646;SDS011;28680;45.642;13.756;2023-06-26T03:41:22;9.45;;;6.40;;
35646;SDS011;28680;45.642;13.756;2023-06-26T03:43:49;9.43;;;7.10;;
35646;SDS011;28680;45.642;13.756;2023-06-26T03:46:15;34.15;;;9.30;;
35646;SDS011;28680;45.642;13.756;2023-06-26T03:48:40;10.88;;;7.40;;
35646;SDS011;28680;45.642;13.756;2023-06-26T03:51:06;18.70;;;7.40;;
35646;SDS011;28680;45.642;13.756;2023-06-26T03:53:33;13.75;;;7.13;;
35646;SDS011;28680;45.642;13.756;2023-06-26T03:55:59;10.25;;;6.68;;
35646;SDS011;28680;45.642;13.756;2023-06-26T03:58:25;10.65;;;6.38;;
35646;SDS011;28680;45.642;13.756;2023-06-26T04:00:51;10.98;;;6.90;;
35646;SDS011;28680;45.642;13.756;2023-06-26T04:03:17;7.63;;;6.18;;
35646;SDS011;28680;45.642;13.756;2023-06-26T04:05:43;8.88;;;6.45;;
35646;SDS011;28680;45.642;13.756;2023-06-26T04:08:09;9.80;;;5.97;;
35646;SDS011;28680;45.642;13.756;2023-06-26T04:10:35;10.95;;;6.38;;
35646;SDS011;28680;45.642;13.756;2023-06-26T04:13:01;8.80;;;6.25;;
35646;SDS011;28680;45.642;13.756;2023-06-26T04:15:27;8.20;;;6.30;;
35646;SDS011;28680;45.642;13.756;2023-06-26T04:17:53;8.73;;;6.28;;
35646;SDS011;28680;45.642;13.756;2023-06-26T04:20:19;9.13;;;6.68;;
35646;SDS011;28680;45.642;13.756;2023-06-26T04:22:45;8.02;;;6.72;;
35646;SDS011;28680;45.642;13.756;2023-06-26T04:25:10;9.80;;;6.68;;
35646;SDS011;28680;45.642;13.756;2023-06-26T04:27:37;7.28;;;5.65;;
35646;SDS011;28680;45.642;13.756;2023-06-26T04:30:03;7.95;;;6.10;;
35646;SDS011;28680;45.642;13.756;2023-06-26T04:32:30;8.35;;;6.20;;
35646;SDS011;28680;45.642;13.756;2023-06-26T04:34:56;11.35;;;6.20;;
35646;SDS011;28680;45.642;13.756;2023-06-26T04:37:22;9.90;;;6.35;;
35646;SDS011;28680;45.642;13.756;2023-06-26T04:39:49;8.55;;;5.95;;
35646;SDS011;28680;45.642;13.756;2023-06-26T04:42:15;7.88;;;6.53;;
35646;SDS011;28680;45.642;13.756;2023-06-26T04:44:41;10.30;;;6.60;;
35646;SDS011;28680;45.642;13.756;2023-06-26T04:47:07;10.35;;;6.82;;
35646;SDS011;28680;45.642;13.756;2023-06-26T04:49:34;11.93;;;7.28;;
35646;SDS011;28680;45.642;13.756;2023-06-26T04:52:00;13.10;;;6.55;;
35646;SDS011;28680;45.642;13.756;2023-06-26T04:54:26;12.95;;;6.97;;
35646;SDS011;28680;45.642;13.756;2023-06-26T04:56:53;9.80;;;6.82;;
35646;SDS011;28680;45.642;13.756;2023-06-26T04:59:19;8.70;;;6.53;;
35646;SDS011;28680;45.642;13.756;2023-06-26T05:01:45;9.93;;;6.95;;
35646;SDS011;28680;45.642;13.756;2023-06-26T05:04:13;9.82;;;6.47;;
35646;SDS011;28680;45.642;13.756;2023-06-26T05:06:40;9.13;;;7.07;;
35646;SDS011;28680;45.642;13.756;2023-06-26T05:09:06;8.95;;;6.60;;
35646;SDS011;28680;45.642;13.756;2023-06-26T05:11:32;10.40;;;6.30;;
35646;SDS011;28680;45.642;13.756;2023-06-26T05:13:58;10.43;;;7.00;;
35646;SDS011;28680;45.642;13.756;2023-06-26T05:16:24;9.35;;;7.20;;
35646;SDS011;28680;45.642;13.756;2023-06-26T05:18:50;8.60;;;6.03;;
35646;SDS011;28680;45.642;13.756;2023-06-26T05:21:17;9.73;;;6.50;;
35646;SDS011;28680;45.642;13.756;2023-06-26T05:23:43;11.00;;;6.68;;
35646;SDS011;28680;45.642;13.756;2023-06-26T05:26:12;10.57;;;6.53;;
35646;SDS011;28680;45.642;13.756;2023-06-26T05:28:38;10.82;;;6.60;;
35646;SDS011;28680;45.642;13.756;2023-06-26T05:31:05;9.93;;;6.10;;
35646;SDS011;28680;45.642;13.756;2023-06-26T05:33:31;7.75;;;6.38;;
35646;SDS011;28680;45.642;13.756;2023-06-26T05:36:01;8.18;;;6.15;;
35646;SDS011;28680;45.642;13.756;2023-06-26T05:38:31;7.95;;;6.50;;
35646;SDS011;28680;45.642;13.756;2023-06-26T05:40:57;9.95;;;6.45;;
35646;SDS011;28680;45.642;13.756;2023-06-26T05:43:23;10.30;;;6.28;;
35646;SDS011;28680;45.642;13.756;2023-06-26T05:45:49;8.57;;;6.53;;
35646;SDS011;28680;45.642;13.756;2023-06-26T05:48:15;9.32;;;6.20;;
35646;SDS011;28680;45.642;13.756;2023-06-26T05:50:41;9.13;;;6.55;;
35646;SDS011;28680;45.642;13.756;2023-06-26T05:53:08;9.45;;;6.90;;
35646;SDS011;28680;45.642;13.756;2023-06-26T05:55:35;11.85;;;7.05;;
35646;SDS011;28680;45.642;13.756;2023-06-26T05:58:02;10.25;;;6.68;;
35646;SDS011;28680;45.642;13.756;2023-06-26T06:00:28;10.38;;;6.78;;
35646;SDS011;28680;45.642;13.756;2023-06-26T06:02:55;13.35;;;7.00;;
35646;SDS011;28680;45.642;13.756;2023-06-26T06:05:23;13.25;;;7.55;;
35646;SDS011;28680;45.642;13.756;2023-06-26T06:07:50;10.20;;;6.78;;
35646;SDS011;28680;45.642;13.756;2023-06-26T06:10:16;9.43;;;6.43;;
35646;SDS011;28680;45.642;13.756;2023-06-26T06:12:42;13.45;;;6.97;;
35646;SDS011;28680;45.642;13.756;2023-06-26T06:15:07;7.38;;;6.22;;
35646;SDS011;28680;45.642;13.756;2023-06-26T06:17:33;11.23;;;6.07;;
35646;SDS011;28680;45.642;13.756;2023-06-26T06:19:59;8.57;;;6.55;;
35646;SDS011;28680;45.642;13.756;2023-06-26T06:22:25;9.40;;;6.60;;
35646;SDS011;28680;45.642;13.756;2023-06-26T06:24:51;9.50;;;6.90;;
35646;SDS011;28680;45.642;13.756;2023-06-26T06:27:17;10.57;;;7.00;;
35646;SDS011;28680;45.642;13.756;2023-06-26T06:29:43;8.63;;;6.35;;
35646;SDS011;28680;45.642;13.756;2023-06-26T06:32:10;10.20;;;7.13;;
35646;SDS011;28680;45.642;13.756;2023-06-26T06:34:36;10.38;;;6.28;;
35646;SDS011;28680;45.642;13.756;2023-06-26T06:37:02;8.38;;;6.43;;
35646;SDS011;28680;45.642;13.756;2023-06-26T06:39:28;10.27;;;6.90;;
35646;SDS011;28680;45.642;13.756;2023-06-26T06:41:55;8.27;;;6.43;;
35646;SDS011;28680;45.642;13.756;2023-06-26T06:44:20;9.00;;;6.47;;
35646;SDS011;28680;45.642;13.756;2023-06-26T06:46:47;9.57;;;6.93;;
35646;SDS011;28680;45.642;13.756;2023-06-26T06:49:13;9.32;;;6.82;;
35646;SDS011;28680;45.642;13.756;2023-06-26T06:51:39;10.20;;;6.57;;
35646;SDS011;28680;45.642;13.756;2023-06-26T06:54:05;10.27;;;6.65;;
35646;SDS011;28680;45.642;13.756;2023-06-26T06:56:31;8.60;;;6.63;;
35646;SDS011;28680;45.642;13.756;2023-06-26T06:58:57;11.23;;;6.78;;
35646;SDS011;28680;45.642;13.756;2023-06-26T07:01:22;9.55;;;6.32;;
35646;SDS011;28680;45.642;13.756;2023-06-26T07:03:48;10.55;;;7.05;;
35646;SDS011;28680;45.642;13.756;2023-06-26T07:06:16;10.85;;;7.40;;
35646;SDS011;28680;45.642;13.756;2023-06-26T07:08:41;11.57;;;7.55;;
35646;SDS011;28680;45.642;13.756;2023-06-26T07:11:07;9.70;;;6.80;;
35646;SDS011;28680;45.642;13.756;2023-06-26T07:13:33;9.48;;;6.03;;
35646;SDS011;28680;45.642;13.756;2023-06-26T07:15:59;9.40;;;7.03;;
35646;SDS011;28680;45.642;13.756;2023-06-26T07:18:25;9.70;;;6.72;;
35646;SDS011;28680;45.642;13.756;2023-06-26T07:20:51;11.65;;;6.82;;
35646;SDS011;28680;45.642;13.756;2023-06-26T07:23:17;8.90;;;6.80;;
35646;SDS011;28680;45.642;13.756;2023-06-26T07:25:43;8.05;;;6.28;;
35646;SDS011;28680;45.642;13.756;2023-06-26T07:28:12;8.75;;;6.90;;
35646;SDS011;28680;45.642;13.756;2023-06-26T07:30:38;10.27;;;6.93;;
35646;SDS011;28680;45.642;13.756;2023-06-26T07:33:04;9.10;;;6.82;;
35646;SDS011;28680;45.642;13.756;2023-06-26T07:35:30;12.07;;;6.97;;
35646;SDS011;28680;45.642;13.756;2023-06-26T07:37:56;12.50;;;7.45;;
35646;SDS011;28680;45.642;13.756;2023-06-26T07:40:22;9.25;;;7.28;;
35646;SDS011;28680;45.642;13.756;2023-06-26T07:42:48;13.07;;;7.47;;
35646;SDS011;28680;45.642;13.756;2023-06-26T07:45:15;10.02;;;7.60;;
35646;SDS011;28680;45.642;13.756;2023-06-26T07:47:41;10.38;;;7.30;;
35646;SDS011;28680;45.642;13.756;2023-06-26T07:50:07;11.57;;;7.28;;
35646;SDS011;28680;45.642;13.756;2023-06-26T07:52:33;10.60;;;7.00;;
35646;SDS011;28680;45.642;13.756;2023-06-26T07:54:59;10.25;;;7.43;;
35646;SDS011;28680;45.642;13.756;2023-06-26T07:57:25;8.05;;;6.22;;
35646;SDS011;28680;45.642;13.756;2023-06-26T07:59:51;11.20;;;6.85;;
35646;SDS011;28680;45.642;13.756;2023-06-26T08:02:17;9.38;;;6.53;;
35646;SDS011;28680;45.642;13.756;2023-06-26T08:04:43;10.05;;;6.80;;
35646;SDS011;28680;45.642;13.756;2023-06-26T08:07:09;8.27;;;6.90;;
35646;SDS011;28680;45.642;13.756;2023-06-26T08:09:35;11.70;;;7.28;;
35646;SDS011;28680;45.642;13.756;2023-06-26T08:12:01;10.25;;;6.93;;
35646;SDS011;28680;45.642;13.756;2023-06-26T08:14:27;9.45;;;6.47;;
35646;SDS011;28680;45.642;13.756;2023-06-26T08:16:53;11.93;;;7.30;;
35646;SDS011;28680;45.642;13.756;2023-06-26T08:19:19;9.50;;;6.75;;
35646;SDS011;28680;45.642;13.756;2023-06-26T08:21:46;9.15;;;6.68;;
35646;SDS011;28680;45.642;13.756;2023-06-26T08:24:12;8.45;;;6.50;;
35646;SDS011;28680;45.642;13.756;2023-06-26T08:26:38;11.40;;;7.53;;
35646;SDS011;28680;45.642;13.756;2023-06-26T08:29:04;8.38;;;6.60;;
35646;SDS011;28680;45.642;13.756;2023-06-26T08:31:36;10.90;;;7.13;;
35646;SDS011;28680;45.642;13.756;2023-06-26T08:34:03;14.15;;;7.70;;
35646;SDS011;28680;45.642;13.756;2023-06-26T08:36:30;10.13;;;7.93;;
35646;SDS011;28680;45.642;13.756;2023-06-26T08:38:57;14.73;;;7.72;;
35646;SDS011;28680;45.642;13.756;2023-06-26T08:41:23;9.95;;;6.93;;
35646;SDS011;28680;45.642;13.756;2023-06-26T08:43:50;10.50;;;6.63;;
35646;SDS011;28680;45.642;13.756;2023-06-26T08:46:19;12.55;;;7.80;;
35646;SDS011;28680;45.642;13.756;2023-06-26T08:48:48;10.70;;;7.25;;
35646;SDS011;28680;45.642;13.756;2023-06-26T08:51:20;9.02;;;7.50;;
35646;SDS011;28680;45.642;13.756;2023-06-26T08:53:58;10.80;;;7.53;;
35646;SDS011;28680;45.642;13.756;2023-06-26T08:56:31;9.48;;;7.53;;
35646;SDS011;28680;45.642;13.756;2023-06-26T08:59:02;10.75;;;7.80;;
35646;SDS011;28680;45.642;13.756;2023-06-26T09:01:31;13.57;;;7.45;;
35646;SDS011;28680;45.642;13.756;2023-06-26T09:03:57;10.48;;;7.70;;
35646;SDS011;28680;45.642;13.756;2023-06-26T09:06:23;11.57;;;8.68;;
35646;SDS011;28680;45.642;13.756;2023-06-26T09:08:49;11.00;;;7.95;;
35646;SDS011;28680;45.642;13.756;2023-06-26T09:11:18;12.13;;;8.82;;
35646;SDS011;28680;45.642;13.756;2023-06-26T09:13:44;12.43;;;8.65;;
35646;SDS011;28680;45.642;13.756;2023-06-26T09:31:32;12.15;;;9.00;;
35646;SDS011;28680;45.642;13.756;2023-06-26T09:38:41;10.60;;;7.80;;
35646;SDS011;28680;45.642;13.756;2023-06-26T09:41:10;14.40;;;8.27;;
35646;SDS011;28680;45.642;13.756;2023-06-26T09:43:45;11.45;;;8.00;;
35646;SDS011;28680;45.642;13.756;2023-06-26T09:46:15;8.80;;;7.50;;
35646;SDS011;28680;45.642;13.756;2023-06-26T09:54:16;11.13;;;7.35;;
35646;SDS011;28680;45.642;13.756;2023-06-26T09:56:42;8.93;;;6.57;;
35646;SDS011;28680;45.642;13.756;2023-06-26T09:59:08;11.07;;;7.22;;
35646;SDS011;28680;45.642;13.756;2023-06-26T10:01:39;12.43;;;7.95;;
35646;SDS011;28680;45.642;13.756;2023-06-26T10:04:07;10.13;;;6.97;;
35646;SDS011;28680;45.642;13.756;2023-06-26T10:06:33;11.05;;;7.15;;
35646;SDS011;28680;45.642;13.756;2023-06-26T10:09:06;10.40;;;6.95;;
35646;SDS011;28680;45.642;13.756;2023-06-26T10:14:36;8.40;;;6.28;;
35646;SDS011;28680;45.642;13.756;2023-06-26T10:17:06;8.23;;;6.70;;
35646;SDS011;28680;45.642;13.756;2023-06-26T10:19:39;11.32;;;7.15;;
35646;SDS011;28680;45.642;13.756;2023-06-26T10:22:17;8.23;;;6.43;;
35646;SDS011;28680;45.642;13.756;2023-06-26T10:24:45;9.25;;;6.80;;
35646;SDS011;28680;45.642;13.756;2023-06-26T10:27:15;8.68;;;6.95;;
35646;SDS011;28680;45.642;13.756;2023-06-26T10:29:49;10.40;;;6.95;;
35646;SDS011;28680;45.642;13.756;2023-06-26T10:32:19;10.15;;;6.93;;
35646;SDS011;28680;45.642;13.756;2023-06-26T10:34:48;8.90;;;6.97;;
35646;SDS011;28680;45.642;13.756;2023-06-26T10:37:15;8.40;;;6.85;;
35646;SDS011;28680;45.642;13.756;2023-06-26T10:39:51;10.85;;;6.80;;
35646;SDS011;28680;45.642;13.756;2023-06-26T10:42:20;10.40;;;6.82;;
35646;SDS011;28680;45.642;13.756;2023-06-26T10:45:09;8.88;;;6.97;;
35646;SDS011;28680;45.642;13.756;2023-06-26T10:47:48;8.02;;;6.55;;
35646;SDS011;28680;45.642;13.756;2023-06-26T10:56:01;8.13;;;6.65;;
35646;SDS011;28680;45.642;13.756;2023-06-26T11:01:20;7.78;;;6.10;;
35646;SDS011;28680;45.642;13.756;2023-06-26T11:03:49;8.27;;;6.93;;
35646;SDS011;28680;45.642;13.756;2023-06-26T11:06:28;10.88;;;7.07;;
35646;SDS011;28680;45.642;13.756;2023-06-26T11:09:00;9.23;;;6.57;;
35646;SDS011;28680;45.642;13.756;2023-06-26T11:14:17;8.93;;;6.95;;
35646;SDS011;28680;45.642;13.756;2023-06-26T11:16:46;9.43;;;6.40;;
35646;SDS011;28680;45.642;13.756;2023-06-26T11:19:14;8.07;;;6.78;;
35646;SDS011;28680;45.642;13.756;2023-06-26T11:21:42;7.88;;;6.32;;
35646;SDS011;28680;45.642;13.756;2023-06-26T11:24:08;7.70;;;6.50;;
35646;SDS011;28680;45.642;13.756;2023-06-26T11:26:39;12.10;;;7.47;;
35646;SDS011;28680;45.642;13.756;2023-06-26T11:29:10;9.25;;;6.00;;
35646;SDS011;28680;45.642;13.756;2023-06-26T11:31:37;8.80;;;6.63;;
35646;SDS011;28680;45.642;13.756;2023-06-26T11:34:10;9.40;;;6.38;;
35646;SDS011;28680;45.642;13.756;2023-06-26T11:36:41;9.82;;;6.72;;
35646;SDS011;28680;45.642;13.756;2023-06-26T11:39:11;11.38;;;6.28;;
35646;SDS011;28680;45.642;13.756;2023-06-26T11:41:38;8.50;;;6.40;;
35646;SDS011;28680;45.642;13.756;2023-06-26T11:44:06;9.43;;;6.85;;
35646;SDS011;28680;45.642;13.756;2023-06-26T11:46:35;11.35;;;7.40;;
35646;SDS011;28680;45.642;13.756;2023-06-26T11:49:08;7.32;;;6.55;;
35646;SDS011;28680;45.642;13.756;2023-06-26T11:51:34;10.15;;;6.28;;
35646;SDS011;28680;45.642;13.756;2023-06-26T11:54:04;9.68;;;6.95;;
35646;SDS011;28680;45.642;13.756;2023-06-26T11:56:30;8.25;;;6.70;;
35646;SDS011;28680;45.642;13.756;2023-06-26T12:01:35;10.65;;;6.65;;
35646;SDS011;28680;45.642;13.756;2023-06-26T12:04:05;10.85;;;7.20;;
35646;SDS011;28680;45.642;13.756;2023-06-26T12:06:34;10.13;;;7.28;;
35646;SDS011;28680;45.642;13.756;2023-06-26T12:09:04;8.88;;;6.80;;
35646;SDS011;28680;45.642;13.756;2023-06-26T12:11:34;10.18;;;7.18;;
35646;SDS011;28680;45.642;13.756;2023-06-26T12:14:01;8.70;;;6.57;;
35646;SDS011;28680;45.642;13.756;2023-06-26T12:16:29;11.05;;;6.72;;
35646;SDS011;28680;45.642;13.756;2023-06-26T12:19:05;10.02;;;7.32;;
35646;SDS011;28680;45.642;13.756;2023-06-26T12:24:17;8.20;;;6.57;;
35646;SDS011;28680;45.642;13.756;2023-06-26T12:26:46;8.68;;;6.32;;
35646;SDS011;28680;45.642;13.756;2023-06-26T12:31:48;12.02;;;7.28;;
35646;SDS011;28680;45.642;13.756;2023-06-26T12:34:25;10.23;;;6.38;;
35646;SDS011;28680;45.642;13.756;2023-06-26T12:37:01;10.00;;;7.10;;
35646;SDS011;28680;45.642;13.756;2023-06-26T12:39:46;7.00;;;6.00;;
35646;SDS011;28680;45.642;13.756;2023-06-26T12:42:25;9.38;;;7.00;;
35646;SDS011;28680;45.642;13.756;2023-06-26T12:44:53;6.82;;;6.13;;
35646;SDS011;28680;45.642;13.756;2023-06-26T12:47:27;7.10;;;6.05;;
35646;SDS011;28680;45.642;13.756;2023-06-26T12:49:56;14.25;;;6.32;;
35646;SDS011;28680;45.642;13.756;2023-06-26T12:52:22;7.97;;;6.25;;
35646;SDS011;28680;45.642;13.756;2023-06-26T12:54:52;8.25;;;6.75;;
35646;SDS011;28680;45.642;13.756;2023-06-26T12:57:20;7.40;;;5.80;;
35646;SDS011;28680;45.642;13.756;2023-06-26T12:59:45;8.30;;;6.40;;
35646;SDS011;28680;45.642;13.756;2023-06-26T13:02:12;7.35;;;6.20;;
35646;SDS011;28680;45.642;13.756;2023-06-26T13:04:38;8.20;;;6.18;;
35646;SDS011;28680;45.642;13.756;2023-06-26T13:07:09;9.25;;;5.95;;
35646;SDS011;28680;45.642;13.756;2023-06-26T13:09:35;7.05;;;6.28;;
35646;SDS011;28680;45.642;13.756;2023-06-26T13:12:03;6.80;;;5.88;;
35646;SDS011;28680;45.642;13.756;2023-06-26T13:14:31;7.90;;;5.90;;
35646;SDS011;28680;45.642;13.756;2023-06-26T13:16:58;11.48;;;6.38;;
35646;SDS011;28680;45.642;13.756;2023-06-26T13:19:26;9.35;;;6.68;;
35646;SDS011;28680;45.642;13.756;2023-06-26T13:21:55;6.85;;;5.82;;
35646;SDS011;28680;45.642;13.756;2023-06-26T13:24:21;8.13;;;6.40;;
35646;SDS011;28680;45.642;13.756;2023-06-26T13:26:47;8.30;;;6.47;;
35646;SDS011;28680;45.642;13.756;2023-06-26T13:29:13;7.63;;;6.20;;
35646;SDS011;28680;45.642;13.756;2023-06-26T13:31:39;7.63;;;6.65;;
35646;SDS011;28680;45.642;13.756;2023-06-26T13:34:05;7.72;;;6.53;;
35646;SDS011;28680;45.642;13.756;2023-06-26T13:36:30;7.90;;;6.15;;
35646;SDS011;28680;45.642;13.756;2023-06-26T13:38:59;6.97;;;6.10;;
35646;SDS011;28680;45.642;13.756;2023-06-26T13:41:25;10.13;;;6.20;;
35646;SDS011;28680;45.642;13.756;2023-06-26T13:43:51;9.07;;;6.13;;
35646;SDS011;28680;45.642;13.756;2023-06-26T13:46:18;10.18;;;6.15;;
35646;SDS011;28680;45.642;13.756;2023-06-26T13:48:44;7.85;;;6.20;;
35646;SDS011;28680;45.642;13.756;2023-06-26T13:51:10;6.57;;;5.88;;
35646;SDS011;28680;45.642;13.756;2023-06-26T13:53:36;7.80;;;5.88;;
35646;SDS011;28680;45.642;13.756;2023-06-26T13:58:43;7.18;;;6.20;;
35646;SDS011;28680;45.642;13.756;2023-06-26T14:01:10;6.75;;;5.78;;
35646;SDS011;28680;45.642;13.756;2023-06-26T14:03:36;9.82;;;6.20;;
35646;SDS011;28680;45.642;13.756;2023-06-26T14:06:03;9.98;;;6.60;;
35646;SDS011;28680;45.642;13.756;2023-06-26T14:08:29;9.35;;;6.78;;
35646;SDS011;28680;45.642;13.756;2023-06-26T14:10:55;7.53;;;6.30;;
35646;SDS011;28680;45.642;13.756;2023-06-26T14:13:20;8.07;;;5.75;;
35646;SDS011;28680;45.642;13.756;2023-06-26T14:15:46;7.82;;;5.95;;
35646;SDS011;28680;45.642;13.756;2023-06-26T14:18:12;8.20;;;5.80;;
35646;SDS011;28680;45.642;13.756;2023-06-26T14:20:38;6.85;;;5.57;;
35646;SDS011;28680;45.642;13.756;2023-06-26T14:23:05;9.10;;;6.15;;
35646;SDS011;28680;45.642;13.756;2023-06-26T14:25:31;7.97;;;5.68;;
35646;SDS011;28680;45.642;13.756;2023-06-26T14:27:58;12.50;;;6.70;;
35646;SDS011;28680;45.642;13.756;2023-06-26T14:30:24;7.35;;;5.65;;
35646;SDS011;28680;45.642;13.756;2023-06-26T14:32:50;8.43;;;5.70;;
35646;SDS011;28680;45.642;13.756;2023-06-26T14:35:16;9.73;;;6.43;;
35646;SDS011;28680;45.642;13.756;2023-06-26T14:37:42;8.25;;;6.68;;
35646;SDS011;28680;45.642;13.756;2023-06-26T14:40:09;10.30;;;6.75;;
35646;SDS011;28680;45.642;13.756;2023-06-26T14:42:35;8.02;;;5.78;;
35646;SDS011;28680;45.642;13.756;2023-06-26T14:45:01;8.40;;;6.13;;
35646;SDS011;28680;45.642;13.756;2023-06-26T14:47:28;7.63;;;5.82;;
35646;SDS011;28680;45.642;13.756;2023-06-26T14:49:54;6.50;;;5.85;;
35646;SDS011;28680;45.642;13.756;2023-06-26T14:52:20;7.43;;;6.20;;
35646;SDS011;28680;45.642;13.756;2023-06-26T14:54:46;7.43;;;5.50;;
35646;SDS011;28680;45.642;13.756;2023-06-26T14:57:12;6.93;;;5.68;;
35646;SDS011;28680;45.642;13.756;2023-06-26T14:59:38;6.88;;;5.75;;
35646;SDS011;28680;45.642;13.756;2023-06-26T15:02:04;9.15;;;5.80;;
35646;SDS011;28680;45.642;13.756;2023-06-26T15:04:31;8.38;;;6.20;;
35646;SDS011;28680;45.642;13.756;2023-06-26T15:10:08;7.15;;;5.70;;
35646;SDS011;28680;45.642;13.756;2023-06-26T15:12:35;8.13;;;5.70;;
35646;SDS011;28680;45.642;13.756;2023-06-26T15:15:01;8.50;;;6.10;;
35646;SDS011;28680;45.642;13.756;2023-06-26T15:17:27;7.90;;;5.88;;
35646;SDS011;28680;45.642;13.756;2023-06-26T15:19:53;8.45;;;6.05;;
35646;SDS011;28680;45.642;13.756;2023-06-26T15:22:21;6.72;;;5.60;;
35646;SDS011;28680;45.642;13.756;2023-06-26T15:24:51;7.32;;;5.97;;
35646;SDS011;28680;45.642;13.756;2023-06-26T15:27:17;7.70;;;6.30;;
35646;SDS011;28680;45.642;13.756;2023-06-26T15:29:43;7.30;;;5.85;;
35646;SDS011;28680;45.642;13.756;2023-06-26T15:32:09;6.70;;;6.00;;
35646;SDS011;28680;45.642;13.756;2023-06-26T15:34:35;7.40;;;5.57;;
35646;SDS011;28680;45.642;13.756;2023-06-26T15:37:01;9.52;;;6.43;;